Home > Products > Valid Products > TAF

000
FTUS43 KMQT 180144 AAA
TAFCMX
TAF AMD
KCMX 180144Z 1802/1824 24007KT P6SM SKC
     FM180400 36012G22KT P6SM SKC
     FM180800 01008KT P6SM SKC
     FM181400 07006KT P6SM SKC
     FM181900 11013KT P6SM FEW250=



000
FTUS43 KMQT 172324
TAFSAW
TAF
KSAW 172324Z 1800/1824 VRB03KT P6SM SKC
     FM180300 24006KT P6SM SKC
     FM180500 32010G20KT P6SM SKC
     FM180800 36014G24KT P6SM SKC
     FM181000 36009KT P6SM SKC
     FM181700 04008KT P6SM SKC=



000
FTUS43 KMQT 172324
TAFCMX
TAF
KCMX 172324Z 1800/1824 VRB03KT P6SM SKC
     FM180200 29013KT P6SM FEW120
     FM180500 36015G25KT P6SM SKC
     FM180800 01008KT P6SM SKC
     FM181400 07006KT P6SM SKC
     FM181900 11013KT P6SM FEW250=



000
FTUS43 KMQT 172324
TAFSAW
TAF
KSAW 172324Z 1800/1824 VRB03KT P6SM SKC
     FM180300 24006KT P6SM SKC
     FM180500 32010G20KT P6SM SKC
     FM180800 36014G24KT P6SM SKC
     FM181000 36009KT P6SM SKC
     FM181700 04008KT P6SM SKC=



000
FTUS43 KMQT 172324
TAFCMX
TAF
KCMX 172324Z 1800/1824 VRB03KT P6SM SKC
     FM180200 29013KT P6SM FEW120
     FM180500 36015G25KT P6SM SKC
     FM180800 01008KT P6SM SKC
     FM181400 07006KT P6SM SKC
     FM181900 11013KT P6SM FEW250=



000
FTUS43 KMQT 171730
TAFCMX
TAF
KCMX 171730Z 1718/1818 27005KT P6SM SKC
     FM180200 30011G20KT P6SM SKC
     FM180500 36015G26KT P6SM SKC
     FM180800 01008KT P6SM SKC
     FM181400 07006KT P6SM SKC=



000
FTUS43 KMQT 171730
TAFSAW
TAF
KSAW 171730Z 1718/1818 03006KT P6SM SKC
     FM180000 17003KT P6SM SKC
     FM180300 24006KT P6SM SKC
     FM180500 32013G21KT P6SM SKC
     FM180800 36013G24KT P6SM SKC
     FM181000 36009KT P6SM SKC
     FM181700 04008KT P6SM SKC=



000
FTUS43 KMQT 171730
TAFCMX
TAF
KCMX 171730Z 1718/1818 27005KT P6SM SKC
     FM180200 30011G20KT P6SM SKC
     FM180500 36015G26KT P6SM SKC
     FM180800 01008KT P6SM SKC
     FM181400 07006KT P6SM SKC=



000
FTUS43 KMQT 171730
TAFSAW
TAF
KSAW 171730Z 1718/1818 03006KT P6SM SKC
     FM180000 17003KT P6SM SKC
     FM180300 24006KT P6SM SKC
     FM180500 32013G21KT P6SM SKC
     FM180800 36013G24KT P6SM SKC
     FM181000 36009KT P6SM SKC
     FM181700 04008KT P6SM SKC=



000
FTUS43 KMQT 171125
TAFSAW
TAF
KSAW 171125Z 1712/1812 01005KT P6SM FEW070
     FM172100 VRB05KT P6SM SKC
     FM180000 27008KT P6SM SKC
     FM180500 35015G22KT P6SM SKC
     FM181000 36007KT P6SM FEW030=



000
FTUS43 KMQT 171125
TAFCMX
TAF
KCMX 171125Z 1712/1812 VRB04KT P6SM FEW070
     FM171800 28010KT P6SM SKC
     FM180200 30011G21KT P6SM SCT100
     FM180400 36015G29KT P6SM SCT100
     FM180600 01009G18KT P6SM SKC
     FM180900 02004KT P6SM FEW030=



000
FTUS43 KMQT 171125
TAFCMX
TAF
KCMX 171125Z 1712/1812 VRB04KT P6SM FEW070
     FM171800 28010KT P6SM SKC
     FM180200 30011G21KT P6SM SCT100
     FM180400 36015G29KT P6SM SCT100
     FM180600 01009G18KT P6SM SKC
     FM180900 02004KT P6SM FEW030=



000
FTUS43 KMQT 171125
TAFSAW
TAF
KSAW 171125Z 1712/1812 01005KT P6SM FEW070
     FM172100 VRB05KT P6SM SKC
     FM180000 27008KT P6SM SKC
     FM180500 35015G22KT P6SM SKC
     FM181000 36007KT P6SM FEW030=



000
FTUS43 KMQT 170538
TAFSAW
TAF
KSAW 170538Z 1706/1806 29004KT P6SM BKN100
     FM171300 36005KT P6SM FEW030
     FM172100 VRB03KT P6SM SKC
     FM180500 34015G22KT P6SM SKC=



000
FTUS43 KMQT 170538
TAFCMX
TAF
KCMX 170538Z 1706/1806 30005KT P6SM SCT100
     FM171700 27009KT P6SM SKC
     FM180300 32009KT P6SM SCT100
     FM180500 36015KT P6SM SCT100=



000
FTUS43 KMQT 170538
TAFCMX
TAF
KCMX 170538Z 1706/1806 30005KT P6SM SCT100
     FM171700 27009KT P6SM SKC
     FM180300 32009KT P6SM SCT100
     FM180500 36015KT P6SM SCT100=



000
FTUS43 KMQT 170538
TAFSAW
TAF
KSAW 170538Z 1706/1806 29004KT P6SM BKN100
     FM171300 36005KT P6SM FEW030
     FM172100 VRB03KT P6SM SKC
     FM180500 34015G22KT P6SM SKC=



000
FTUS43 KMQT 162320
TAFCMX
TAF
KCMX 162320Z 1700/1724 32007KT P6SM BKN080
     FM170500 31007KT P6SM SCT100
     FM171700 28009KT P6SM SKC=



000
FTUS43 KMQT 162320
TAFSAW
TAF
KSAW 162320Z 1700/1724 01006KT P6SM SCT150
     FM170200 22005KT P6SM BKN100
     FM170700 31005KT P6SM SCT100
     FM171300 36005KT P6SM FEW030
     FM172100 09003KT P6SM SKC=



000
FTUS43 KMQT 162320
TAFSAW
TAF
KSAW 162320Z 1700/1724 01006KT P6SM SCT150
     FM170200 22005KT P6SM BKN100
     FM170700 31005KT P6SM SCT100
     FM171300 36005KT P6SM FEW030
     FM172100 09003KT P6SM SKC=



000
FTUS43 KMQT 162320
TAFCMX
TAF
KCMX 162320Z 1700/1724 32007KT P6SM BKN080
     FM170500 31007KT P6SM SCT100
     FM171700 28009KT P6SM SKC=



000
FTUS43 KMQT 161731
TAFCMX
TAF
KCMX 161731Z 1618/1718 29007KT P6SM SCT150
     FM170900 32005KT P6SM FEW150=



000
FTUS43 KMQT 161731
TAFCMX
TAF
KCMX 161731Z 1618/1718 29007KT P6SM SCT150
     FM170900 32005KT P6SM FEW150=



000
FTUS43 KMQT 161731
TAFSAW
TAF
KSAW 161731Z 1618/1718 19008KT P6SM SKC
     FM162300 00000KT P6SM SCT130=



000
FTUS43 KMQT 161731
TAFSAW
TAF
KSAW 161731Z 1618/1718 19008KT P6SM SKC
     FM162300 00000KT P6SM SCT130=



000
FTUS43 KMQT 161135
TAFCMX
TAF
KCMX 161135Z 1612/1712 18005KT P6SM BKN250
     FM161700 25005KT P6SM BKN200
     FM161900 29011KT P6SM BKN100
     FM170500 31008KT P6SM BKN060
     FM171000 29005KT P6SM SCT150=



000
FTUS43 KMQT 161135
TAFSAW
TAF
KSAW 161135Z 1612/1712 20009KT P6SM SCT250 WS010/19035KT
     FM161300 20007KT P6SM SCT150
     FM162000 16005KT P6SM BKN150
     FM170200 21005KT P6SM BKN070
     FM170900 31004KT P6SM SCT150=



000
FTUS43 KMQT 160533
TAFSAW
TAF
KSAW 160533Z 1606/1706 18007KT P6SM SCT250 WS010/19035KT
     FM161200 20007KT P6SM BKN200
     FM161900 16005KT P6SM BKN120
     FM170200 21005KT P6SM BKN080=



000
FTUS43 KMQT 160533
TAFCMX
TAF
KCMX 160533Z 1606/1706 18005KT P6SM SCT250 WS010/19035KT
     FM161200 21005KT P6SM BKN200
     FM161900 29006KT P6SM BKN080=



000
FTUS43 KMQT 160533
TAFSAW
TAF
KSAW 160533Z 1606/1706 18007KT P6SM SCT250 WS010/19035KT
     FM161200 20007KT P6SM BKN200
     FM161900 16005KT P6SM BKN120
     FM170200 21005KT P6SM BKN080=



000
FTUS43 KMQT 160533
TAFCMX
TAF
KCMX 160533Z 1606/1706 18005KT P6SM SCT250 WS010/19035KT
     FM161200 21005KT P6SM BKN200
     FM161900 29006KT P6SM BKN080=



000
FTUS43 KMQT 152326
TAFSAW
TAF
KSAW 152326Z 1600/1624 16009KT P6SM SCT250
     FM160400 17007KT P6SM SCT250 WS010/19030KT
     FM161300 20007KT P6SM SCT120=



000
FTUS43 KMQT 152326
TAFCMX
TAF
KCMX 152326Z 1600/1624 10006KT P6SM SKC
     FM160300 17005KT P6SM SCT250 WS010/19030KT
     FM161300 21005KT P6SM BKN250
     FM161800 29006KT P6SM BKN100=



000
FTUS43 KMQT 152326
TAFSAW
TAF
KSAW 152326Z 1600/1624 16009KT P6SM SCT250
     FM160400 17007KT P6SM SCT250 WS010/19030KT
     FM161300 20007KT P6SM SCT120=



000
FTUS43 KMQT 152326
TAFCMX
TAF
KCMX 152326Z 1600/1624 10006KT P6SM SKC
     FM160300 17005KT P6SM SCT250 WS010/19030KT
     FM161300 21005KT P6SM BKN250
     FM161800 29006KT P6SM BKN100=



000
FTUS43 KMQT 151804 AAA
TAFSAW
TAF AMD
KSAW 151804Z 1518/1618 15010G16KT P6SM SKC
     FM160000 18006KT P6SM SKC=



000
FTUS43 KMQT 151804 AAA
TAFSAW
TAF AMD
KSAW 151804Z 1518/1618 15010G16KT P6SM SKC
     FM160000 18006KT P6SM SKC=



000
FTUS43 KMQT 151731
TAFSAW
TAF
KSAW 151731Z 1518/1618 18010G16KT P6SM SKC
     FM160000 18006KT P6SM SKC=



000
FTUS43 KMQT 151731
TAFCMX
TAF
KCMX 151731Z 1518/1618 12011KT P6SM SKC
     FM161100 18005KT P6SM SCT150
     FM161700 25006KT P6SM SCT150=



000
FTUS43 KMQT 151731
TAFSAW
TAF
KSAW 151731Z 1518/1618 18010G16KT P6SM SKC
     FM160000 18006KT P6SM SKC=



000
FTUS43 KMQT 151731
TAFCMX
TAF
KCMX 151731Z 1518/1618 12011KT P6SM SKC
     FM161100 18005KT P6SM SCT150
     FM161700 25006KT P6SM SCT150=



000
FTUS43 KMQT 151457 AAA
TAFSAW
TAF AMD
KSAW 151457Z 1515/1612 21012KT P6SM SKC
     FM151700 16012G18KT P6SM SKC
     FM160100 18007KT P6SM SCT200=



000
FTUS43 KMQT 151127
TAFSAW
TAF
KSAW 151127Z 1512/1612 VRB03KT P6SM SKC
     FM151400 17008KT P6SM SKC
     FM151700 16012G18KT P6SM SKC
     FM160100 18007KT P6SM SCT200=



000
FTUS43 KMQT 151127
TAFCMX
TAF
KCMX 151127Z 1512/1612 13005KT P6SM SKC
     FM151400 14009KT P6SM SKC=



000
FTUS43 KMQT 150521
TAFCMX
TAF
KCMX 150521Z 1506/1606 11005KT P6SM SKC
     FM151400 11007KT P6SM SKC=



000
FTUS43 KMQT 150521
TAFCMX
TAF
KCMX 150521Z 1506/1606 11005KT P6SM SKC
     FM151400 11007KT P6SM SKC=



000
FTUS43 KMQT 150521
TAFSAW
TAF
KSAW 150521Z 1506/1606 VRB03KT P6SM SKC
     FM151500 16008KT P6SM SKC=



    US Dept of Commerce
    National Oceanic and Atmospheric Administration
    National Weather Service
    1325 East West Highway
    Silver Spring, MD 20910
    Page Author: NWS Internet Services Team
Disclaimer
Information Quality
Credits
Glossary
Privacy Policy
Freedom of Information Act (FOIA)
About Us
Career Opportunities